Time;durP1;ratioP1;P1;durP2;ratioP2;P2;SDS_P1;SDS_P2;PMS_P1;PMS_P2;Temp;Humidity;BMP_temperature;BMP_pressure;BME280_temperature;BME280_humidity;BME280_pressure;Samples;Min_cycle;Max_cycle;Signal;HPM_P1;HPM_P2
2022/10/26 09:20:51;;;;;;;6.80;3.72;;;;;;;24.81;46.17;95447.94;5061830;28;20267;-86
2022/10/26 09:23:25;;;;;;;6.78;3.90;;;;;;;24.67;47.33;95441.59;5084453;28;20181;-84
2022/10/26 09:26:01;;;;;;;10.35;3.00;;;;;;;24.46;47.98;95402.50;5087452;28;20204;-87
2022/10/26 09:28:35;;;;;;;5.80;2.88;;;;;;;24.54;46.97;95436.88;5070459;28;20235;-85
2022/10/26 09:31:03;;;;;;;5.55;2.78;;;;;;;24.43;46.95;95417.31;5082524;28;20268;-82
2022/10/26 09:33:33;;;;;;;3.20;2.17;;;;;;;24.25;45.83;95396.50;5084819;28;20173;-84
2022/10/26 09:36:06;;;;;;;2.63;2.35;;;;;;;24.31;45.82;95409.63;5087818;28;20626;-83
2022/10/26 09:38:35;;;;;;;2.67;1.98;;;;;;;24.48;46.85;95435.31;5083349;28;20193;-83
2022/10/26 09:41:09;;;;;;;4.85;2.20;;;;;;;24.02;46.57;95381.88;5093790;28;20657;-82
2022/10/26 09:43:43;;;;;;;6.13;1.90;;;;;;;24.25;45.56;95440.38;5089240;28;20217;-82
2022/10/26 09:46:17;;;;;;;3.00;1.83;;;;;;;24.13;44.77;95434.50;5072180;28;20653;-82
2022/10/26 09:49:00;;;;;;;4.80;1.95;;;;;;;23.77;44.26;95387.47;5084526;28;20561;-83
2022/10/26 09:51:26;;;;;;;5.05;1.58;;;;;;;23.83;45.14;95418.59;5082635;28;20177;-82
2022/10/26 09:53:55;;;;;;;5.78;1.80;;;;;;;23.73;46.18;95405.22;5086443;28;20253;-82
2022/10/26 09:56:21;;;;;;;4.40;1.65;;;;;;;23.33;46.35;95364.06;5083576;28;20633;-83
2022/10/26 09:59:00;;;;;;;5.30;1.85;;;;;;;23.50;47.01;95404.84;5073395;28;20197;-82
2022/10/26 10:01:26;;;;;;;5.63;2.30;;;;;;;23.47;46.59;95418.00;5072515;28;20205;-82
2022/10/26 10:04:19;;;;;;;4.30;1.80;;;;;;;22.99;48.80;95406.97;5091215;28;20609;-82
2022/10/26 10:06:50;;;;;;;4.10;2.20;;;;;;;22.82;48.48;95393.06;5093477;28;20617;-83
2022/10/26 10:09:23;;;;;;;10.02;1.95;;;;;;;22.92;49.25;95415.28;5093920;28;20633;-82
2022/10/26 10:12:02;;;;;;;11.50;2.22;;;;;;;22.87;49.38;95406.47;5081847;28;20198;-82
2022/10/26 10:14:39;;;;;;;4.45;1.85;;;;;;;22.88;49.28;95414.25;5072094;28;20178;-82
2022/10/26 10:17:07;;;;;;;3.10;2.05;;;;;;;22.85;48.99;95405.91;5080358;28;20176;-83
2022/10/26 10:19:37;;;;;;;3.70;1.60;;;;;;;22.88;49.12;95411.56;5072980;28;20197;-82
2022/10/26 10:22:15;;;;;;;6.72;1.95;;;;;;;22.81;48.60;95407.56;5089540;28;20209;-82
2022/10/26 10:24:51;;;;;;;4.15;2.00;;;;;;;22.75;48.97;95406.75;5093106;28;20181;-82
2022/10/26 10:27:17;;;;;;;4.50;1.92;;;;;;;22.60;48.87;95377.25;5093150;28;20178;-82
2022/10/26 10:29:44;;;;;;;6.65;2.22;;;;;;;22.41;49.35;95352.06;5086128;28;20254;-82
2022/10/26 10:32:19;;;;;;;8.02;1.88;;;;;;;22.56;50.68;95377.00;5076562;28;20263;-82
2022/10/26 10:34:46;;;;;;;8.55;2.85;;;;;;;22.44;49.95;95360.41;5087882;28;20701;-82
2022/10/26 10:37:32;;;;;;;4.95;1.73;;;;;;;22.57;50.52;95389.31;5072766;28;20668;-82
2022/10/26 10:40:00;;;;;;;4.47;2.08;;;;;;;22.11;50.56;95332.31;5072898;28;20202;-82
2022/10/26 10:42:30;;;;;;;4.70;1.70;;;;;;;22.33;49.96;95366.84;5072049;28;20170;-82
2022/10/26 10:44:57;;;;;;;8.93;2.47;;;;;;;22.47;50.69;95389.38;5072608;28;20174;-82
2022/10/26 10:47:40;;;;;;;3.53;1.40;;;;;;;22.13;50.08;95332.03;5089300;28;20257;-82
2022/10/26 10:50:14;;;;;;;6.28;1.80;;;;;;;22.44;51.19;95378.38;5091680;28;20162;-82
2022/10/26 10:52:40;;;;;;;4.38;2.03;;;;;;;22.10;51.26;95328.00;5091351;28;20185;-83
2022/10/26 10:55:24;;;;;;;3.33;1.60;;;;;;;22.40;50.64;95383.47;5091549;28;20170;-82
2022/10/26 10:58:11;;;;;;;7.57;2.05;;;;;;;22.33;50.76;95372.22;5081330;28;20166;-83
2022/10/26 11:00:37;;;;;;;3.78;2.70;;;;;;;22.33;49.56;95366.03;5072434;28;20186;-82
2022/10/26 11:03:23;;;;;;;2.53;2.08;;;;;;;22.29;50.92;95365.00;5071340;28;20240;-82
2022/10/26 11:06:27;;;;;;;4.13;2.00;;;;;;;22.23;50.24;95358.81;5072517;28;20656;-82
2022/10/26 11:08:58;;;;;;;10.65;2.13;;;;;;;22.25;49.70;95364.72;5072419;28;20679;-83
2022/10/26 11:11:30;;;;;;;5.35;1.90;;;;;;;22.26;49.53;95360.16;5078526;28;20188;-82
2022/10/26 11:14:14;;;;;;;4.03;1.63;;;;;;;22.06;49.59;95345.69;5089277;28;20177;-82
2022/10/26 11:16:47;;;;;;;2.10;1.77;;;;;;;22.17;50.22;95352.66;5071125;28;20719;-82
2022/10/26 11:19:53;;;;;;;1.63;1.50;;;;;;;22.22;49.41;95353.75;5083081;28;20284;-82
2022/10/26 11:22:24;;;;;;;2.65;1.88;;;;;;;22.26;48.76;95355.59;5092432;28;20280;-82
2022/10/26 11:24:58;;;;;;;2.70;1.42;;;;;;;22.25;47.95;95364.72;5090776;28;20182;-82
2022/10/26 11:27:29;;;;;;;2.90;1.52;;;;;;;22.27;48.52;95356.41;5090863;28;20181;-83
2022/10/26 11:29:57;;;;;;;1.58;1.33;;;;;;;22.33;47.85;95353.44;5092085;28;20181;-82
2022/10/26 11:32:31;;;;;;;2.63;1.13;;;;;;;22.13;47.62;95324.00;5082284;28;20178;-81
2022/10/26 11:35:25;;;;;;;3.45;2.10;;;;;;;22.31;47.26;95344.88;5092043;28;20169;-82
2022/10/26 11:38:00;;;;;;;5.18;1.70;;;;;;;22.36;47.34;95357.47;5077003;28;20301;-82
2022/10/26 11:40:34;;;;;;;3.47;1.48;;;;;;;22.37;46.85;95353.72;5071347;28;20198;-82
2022/10/26 11:43:11;;;;;;;4.88;2.00;;;;;;;22.19;46.17;95326.38;5077226;28;20228;-82
2022/10/26 11:45:42;;;;;;;2.42;1.40;;;;;;;22.20;46.63;95311.09;5091692;28;20173;-82
2022/10/26 11:48:20;;;;;;;2.40;1.60;;;;;;;22.38;46.51;95344.59;5091839;28;20185;-82
2022/10/26 11:50:57;;;;;;;3.20;1.60;;;;;;;22.18;46.03;95310.56;5091563;28;20223;-82
2022/10/26 11:53:28;;;;;;;2.97;1.88;;;;;;;22.22;44.81;95310.81;5091580;28;20169;-82
2022/10/26 11:55:58;;;;;;;3.67;2.20;;;;;;;22.44;45.77;95343.47;5087144;28;20177;-82
2022/10/26 11:58:26;;;;;;;2.22;1.65;;;;;;;22.47;45.24;95346.44;5086749;28;20178;-81
2022/10/26 12:00:57;;;;;;;1.48;1.20;;;;;;;22.48;44.49;95339.19;5081323;28;20183;-82
2022/10/26 12:03:41;;;;;;;3.92;1.10;;;;;;;22.46;44.75;95347.50;5093438;28;20174;-82
2022/10/26 12:06:07;;;;;;;2.90;1.55;;;;;;;22.03;44.30;95267.69;5084999;28;20184;-82
2022/10/26 12:08:36;;;;;;;1.70;1.38;;;;;;;22.52;44.56;95345.59;5091557;28;20157;-82
2022/10/26 12:11:25;;;;;;;1.65;1.05;;;;;;;22.49;43.95;95344.25;5090039;28;20178;-82
2022/10/26 12:13:58;;;;;;;8.48;2.08;;;;;;;22.48;43.80;95336.50;5089899;28;20219;-82
2022/10/26 12:16:45;;;;;;;3.28;1.25;;;;;;;22.52;43.36;95348.28;5090184;28;20169;-83
2022/10/26 12:19:42;;;;;;;2.25;1.33;;;;;;;22.33;43.33;95329.28;5105880;28;20197;-83
2022/10/26 12:22:15;;;;;;;1.60;1.30;;;;;;;22.34;43.31;95333.56;5071730;28;20199;-83
2022/10/26 12:25:04;;;;;;;1.42;1.00;;;;;;;22.37;42.83;95335.72;5091053;28;20205;-83
2022/10/26 12:27:39;;;;;;;2.63;1.23;;;;;;;22.34;42.97;95328.22;5089699;28;20178;-83
2022/10/26 12:30:12;;;;;;;2.88;1.30;;;;;;;22.35;43.75;95329.81;5073285;28;20181;-82
2022/10/26 12:32:40;;;;;;;2.00;1.80;;;;;;;22.36;43.81;95336.00;5084359;28;20178;-83
2022/10/26 12:35:40;;;;;;;4.82;2.13;;;;;;;22.35;43.51;95331.72;5085408;28;20618;-82
2022/10/26 12:38:20;;;;;;;1.50;1.40;;;;;;;22.34;43.66;95328.22;5083150;28;20189;-83
2022/10/26 12:40:46;;;;;;;1.98;1.58;;;;;;;22.29;43.20;95330.91;5092627;28;20264;-83
2022/10/26 12:43:14;;;;;;;5.35;1.40;;;;;;;22.27;43.42;95337.63;5090655;28;20679;-83
2022/10/26 12:45:41;;;;;;;6.07;1.25;;;;;;;22.27;43.36;95337.63;5079006;28;20576;-83
2022/10/26 12:48:30;;;;;;;1.42;0.90;;;;;;;22.22;43.07;95330.41;5076053;28;20557;-83
2022/10/26 12:51:21;;;;;;;1.00;0.98;;;;;;;22.19;42.11;95328.25;5090833;28;20166;-83
2022/10/26 12:53:56;;;;;;;6.43;2.22;;;;;;;22.15;42.30;95332.53;5090344;28;20199;-83
2022/10/26 12:56:40;;;;;;;8.20;2.85;;;;;;;22.05;41.43;95322.66;5074078;28;20179;-83
2022/10/26 12:59:43;;;;;;;4.18;1.40;;;;;;;22.05;40.75;95333.41;5071737;28;20742;-83
2022/10/26 13:02:32;;;;;;;6.50;2.00;;;;;;;22.03;41.10;95330.16;5080347;28;20169;-83
2022/10/26 13:05:19;;;;;;;15.57;2.50;;;;;;;22.00;40.51;95336.06;5079320;28;20173;-83
2022/10/26 13:07:50;;;;;;;4.78;1.95;;;;;;;21.89;40.88;95322.91;5087852;28;20170;-82
2022/10/26 13:10:20;;;;;;;9.13;3.08;;;;;;;21.99;40.30;95334.44;5086561;28;20162;-82
2022/10/26 13:12:52;;;;;;;5.65;2.67;;;;;;;21.95;39.76;95336.06;5085783;28;20184;-83
2022/10/26 13:15:25;;;;;;;2.45;1.63;;;;;;;21.65;39.28;95287.81;5070600;28;20185;-82
2022/10/26 13:17:58;;;;;;;3.65;1.33;;;;;;;21.79;39.71;95316.47;5082776;28;20178;-82
2022/10/26 13:20:26;;;;;;;3.65;2.50;;;;;;;21.72;39.89;95324.00;5088451;28;20243;-82
2022/10/26 13:22:58;;;;;;;3.88;1.85;;;;;;;21.68;39.17;95324.81;5083932;28;20288;-82
2022/10/26 13:25:30;;;;;;;7.68;2.90;;;;;;;21.73;39.57;95335.50;5084860;28;20181;-82
2022/10/26 13:28:08;;;;;;;4.15;2.53;;;;;;;21.77;39.67;95341.97;5085249;28;20236;-82
2022/10/26 13:30:45;;;;;;;5.63;2.45;;;;;;;21.67;40.04;95332.03;5073117;28;20188;-82
2022/10/26 13:33:21;;;;;;;4.30;2.20;;;;;;;21.48;39.22;95303.34;5088841;28;20330;-82
2022/10/26 13:35:48;;;;;;;4.82;2.00;;;;;;;21.44;39.06;95298.56;5090003;28;20181;-82
2022/10/26 13:38:21;;;;;;;2.45;1.65;;;;;;;21.66;39.14;95343.84;5090326;28;20170;-82
2022/10/26 13:40:54;;;;;;;5.45;2.58;;;;;;;21.48;39.25;95316.75;5078333;28;20178;-82
2022/10/26 13:43:22;;;;;;;3.85;1.90;;;;;;;21.65;38.22;95346.78;5085886;28;20218;-82
2022/10/26 13:45:52;;;;;;;2.05;1.58;;;;;;;21.59;38.04;95351.34;5088672;28;20178;-82
2022/10/26 13:48:23;;;;;;;4.00;1.73;;;;;;;21.17;38.55;95292.63;5076392;28;20645;-82
2022/10/26 13:50:56;;;;;;;6.57;1.70;;;;;;;21.46;38.89;95346.50;5068494;28;20674;-82
2022/10/26 13:53:53;;;;;;;3.65;2.20;;;;;;;21.38;38.94;95347.03;5074999;28;20230;-83
2022/10/26 13:57:05;;;;;;;8.52;3.30;;;;;;;21.40;39.19;95353.72;5081310;28;20221;-82
2022/10/26 13:59:41;;;;;;;5.68;3.30;;;;;;;21.33;39.29;95352.38;5082472;28;20254;-82
2022/10/26 14:02:16;;;;;;;5.45;3.17;;;;;;;21.27;39.85;95354.25;5087194;28;20182;-82
2022/10/26 14:04:58;;;;;;;12.93;4.38;;;;;;;20.74;40.35;95287.69;5074022;28;20239;-83
2022/10/26 14:08:02;;;;;;;6.75;2.85;;;;;;;21.14;40.46;95356.59;5083358;28;20564;-83
2022/10/26 14:10:47;;;;;;;14.52;8.00;;;;;;;21.12;40.53;95359.53;5065772;28;20224;-82
2022/10/26 14:13:31;;;;;;;4.90;2.55;;;;;;;21.07;40.69;95360.34;5067662;28;20190;-82
2022/10/26 14:15:58;;;;;;;7.35;3.97;;;;;;;21.01;41.42;95357.91;5070229;28;20190;-82
2022/10/26 14:18:30;;;;;;;6.60;3.20;;;;;;;20.97;41.23;95352.25;5082504;28;20251;-82
2022/10/26 14:21:12;;;;;;;12.15;5.07;;;;;;;20.82;42.29;95346.06;5083957;28;20704;-82
2022/10/26 14:24:21;;;;;;;11.70;5.90;;;;;;;20.87;41.95;95359.44;5081727;28;20217;-82
2022/10/26 14:26:46;;;;;;;7.18;3.55;;;;;;;20.60;42.19;95333.66;5080359;28;20197;-82
2022/10/26 14:29:37;;;;;;;5.30;3.30;;;;;;;20.61;42.36;95345.16;5081585;28;20614;-82
2022/10/26 14:32:28;;;;;;;13.57;6.40;;;;;;;20.59;42.83;95350.78;5090312;28;20204;-81
2022/10/26 14:34:57;;;;;;;10.32;2.92;;;;;;;20.42;43.21;95344.00;5071755;28;20185;-82
2022/10/26 14:38:03;;;;;;;5.82;3.05;;;;;;;20.47;42.94;95352.88;5090668;28;20180;-82
2022/10/26 14:40:33;;;;;;;10.02;4.25;;;;;;;20.36;43.31;95347.72;5017312;28;20596;-82
2022/10/26 14:43:01;;;;;;;8.07;4.70;;;;;;;20.27;42.86;95336.69;5066631;28;20273;-82
2022/10/26 14:45:37;;;;;;;9.07;4.32;;;;;;;20.13;43.04;95322.19;5080152;28;20304;-85
2022/10/26 14:48:05;;;;;;;10.93;3.45;;;;;;;20.16;42.61;95341.16;5068530;28;20649;-84
2022/10/26 14:50:34;;;;;;;4.35;2.53;;;;;;;20.03;43.02;95335.47;5093334;28;20177;-84
2022/10/26 14:53:21;;;;;;;5.10;2.75;;;;;;;19.89;42.75;95321.78;5082598;28;20189;-84
2022/10/26 14:55:51;;;;;;;10.75;3.47;;;;;;;19.89;42.54;95337.81;5070013;28;20193;-84
2022/10/26 14:58:35;;;;;;;8.23;3.53;;;;;;;19.90;42.97;95340.19;5071282;28;20274;-84
2022/10/26 15:01:28;;;;;;;3.95;2.80;;;;;;;20.00;42.90;95358.16;5079344;28;20183;-83
2022/10/26 15:04:05;;;;;;;7.30;3.67;;;;;;;19.64;43.23;95313.53;5090947;28;20238;-84
2022/10/26 15:06:35;;;;;;;11.30;5.43;;;;;;;19.57;43.03;95311.91;5080799;28;20223;-83
2022/10/26 15:09:28;;;;;;;18.40;3.50;;;;;;;19.94;43.60;95377.91;5092972;28;20200;-84
2022/10/26 15:11:56;;;;;;;26.98;4.97;;;;;;;19.47;44.11;95324.34;5093726;28;20970;-84
2022/10/26 15:14:23;;;;;;;11.50;4.30;;;;;;;19.34;44.36;95332.78;5092963;28;20174;-83
2022/10/26 15:16:53;;;;;;;12.70;5.05;;;;;;;19.18;44.57;95321.97;5094186;28;20177;-82
2022/10/26 15:19:22;;;;;;;29.00;6.53;;;;;;;19.20;45.21;95343.84;5092944;28;20196;-82
2022/10/26 15:21:49;;;;;;;21.98;6.70;;;;;;;18.74;45.68;95283.91;5092618;28;20233;-84
2022/10/26 15:24:42;;;;;;;15.90;5.68;;;;;;;19.05;45.81;95342.91;5094527;28;20166;-84
2022/10/26 15:27:16;;;;;;;22.63;5.80;;;;;;;19.20;45.76;95391.91;5094298;28;20177;-84
2022/10/26 15:29:48;;;;;;;19.50;6.25;;;;;;;19.08;45.46;95407.28;5092671;28;20169;-84
2022/10/26 15:32:37;;;;;;;30.65;6.50;;;;;;;18.83;45.73;95399.78;5094905;28;20182;-84
2022/10/26 15:35:41;;;;;;;37.00;7.78;;;;;;;18.73;46.87;95406.84;5092207;28;20557;-82
2022/10/26 15:38:25;;;;;;;34.17;7.90;;;;;;;18.48;47.49;95413.44;5073435;28;20309;-82
2022/10/26 15:41:26;;;;;;;17.35;8.07;;;;;;;18.22;48.43;95406.13;5084545;28;20204;-83
2022/10/26 15:44:05;;;;;;;15.63;5.35;;;;;;;17.70;49.24;95398.41;5090880;28;20173;-84
2022/10/26 15:46:45;;;;;;;18.42;5.68;;;;;;;17.56;49.60;95404.25;5106563;28;20681;-84
2022/10/26 15:49:19;;;;;;;20.42;5.28;;;;;;;17.32;50.14;95401.72;5090051;28;20260;-83
2022/10/26 15:51:54;;;;;;;12.27;6.47;;;;;;;17.41;50.12;95428.75;5084846;28;20174;-83
2022/10/26 15:54:29;;;;;;;15.77;5.03;;;;;;;17.20;50.48;95418.78;5083796;28;20193;-82
2022/10/26 15:56:55;;;;;;;28.02;7.97;;;;;;;17.36;51.24;95431.34;5092422;28;20260;-82
2022/10/26 15:59:25;;;;;;;18.10;9.18;;;;;;;17.39;50.84;95441.47;5085162;28;20281;-82
2022/10/26 16:01:54;;;;;;;15.15;5.60;;;;;;;17.00;51.24;95394.47;5080521;28;20673;-82
2022/10/26 16:04:25;;;;;;;19.75;6.03;;;;;;;16.83;51.72;95389.88;5085231;28;20566;-82
2022/10/26 16:07:10;;;;;;;19.75;5.40;;;;;;;16.97;52.38;95420.47;5080690;28;20193;-82
2022/10/26 16:09:43;;;;;;;13.88;4.90;;;;;;;17.07;52.45;95438.50;5082523;28;20181;-83
2022/10/26 16:12:17;;;;;;;8.45;3.58;;;;;;;16.96;52.07;95439.31;5089571;28;20170;-82
2022/10/26 16:14:45;;;;;;;11.65;3.75;;;;;;;16.98;52.38;95456.69;5084260;28;20264;-81
2022/10/26 16:17:32;;;;;;;22.20;5.75;;;;;;;16.86;52.81;95441.81;5083394;28;20230;-82
2022/10/26 16:19:59;;;;;;;18.58;5.07;;;;;;;16.97;53.20;95462.22;5082333;28;21016;-81
2022/10/26 16:22:29;;;;;;;14.23;5.30;;;;;;;17.00;53.12;95467.09;5086373;28;20189;-81
2022/10/26 16:24:54;;;;;;;13.73;4.80;;;;;;;16.97;53.17;95465.69;5092309;28;20783;-81
2022/10/26 16:27:22;;;;;;;16.65;4.20;;;;;;;16.98;53.40;95463.84;5087223;28;20252;-80
2022/10/26 16:29:59;;;;;;;10.80;4.05;;;;;;;16.96;53.50;95471.25;5086796;28;20184;-81
2022/10/26 16:32:27;;;;;;;14.27;4.57;;;;;;;16.88;53.74;95472.44;5095066;28;20568;-81
2022/10/26 16:34:58;;;;;;;14.95;5.93;;;;;;;16.86;54.20;95474.53;5082296;28;20174;-82
2022/10/26 16:37:25;;;;;;;39.13;17.05;;;;;;;16.63;54.68;95479.88;5087128;28;20273;-82
2022/10/26 16:39:58;;;;;;;12.65;5.78;;;;;;;16.58;55.21;95482.41;5083516;28;20714;-81
2022/10/26 16:42:47;;;;;;;26.77;6.05;;;;;;;16.53;55.77;95487.56;5085796;28;20186;-81
2022/10/26 16:45:19;;;;;;;17.98;5.85;;;;;;;16.46;56.00;95489.56;5082627;28;20178;-80
2022/10/26 16:47:56;;;;;;;19.30;6.70;;;;;;;16.26;56.38;95478.47;5078536;28;20188;-82
2022/10/26 16:50:31;;;;;;;33.00;9.38;;;;;;;16.36;56.34;95494.63;5082054;28;20209;-82
2022/10/26 16:53:12;;;;;;;40.85;15.25;;;;;;;16.36;56.12;95497.28;5082033;28;20173;-81
2022/10/26 16:55:38;;;;;;;30.15;13.00;;;;;;;16.22;56.60;95486.91;5082620;28;20180;-82
2022/10/26 16:58:04;;;;;;;71.85;28.58;;;;;;;16.13;57.09;95501.56;5079707;28;20208;-81
2022/10/26 17:00:39;;;;;;;38.90;17.45;;;;;;;15.98;57.23;95505.69;5082161;28;20228;-81
2022/10/26 17:03:07;;;;;;;48.10;20.70;;;;;;;15.79;58.28;95496.97;5087518;28;20188;-82
2022/10/26 17:05:33;;;;;;;62.55;24.52;;;;;;;15.85;58.94;95502.19;5086161;28;20186;-81
2022/10/26 17:08:08;;;;;;;61.28;24.88;;;;;;;15.71;59.33;95489.34;5084222;28;20193;-80
2022/10/26 17:10:35;;;;;;;50.92;19.38;;;;;;;15.69;59.36;95494.88;5075500;28;20205;-79
2022/10/26 17:13:02;;;;;;;47.67;19.75;;;;;;;15.78;59.84;95516.59;5079891;28;20641;-81
2022/10/26 17:15:31;;;;;;;30.95;15.15;;;;;;;15.75;59.29;95511.72;5084108;28;20219;-81
2022/10/26 17:18:04;;;;;;;32.45;14.20;;;;;;;15.65;59.19;95517.63;5067056;28;20178;-80
2022/10/26 17:20:30;;;;;;;46.90;18.92;;;;;;;15.69;60.11;95531.22;5086018;28;20233;-79
2022/10/26 17:23:00;;;;;;;55.13;21.73;;;;;;;15.67;60.24;95530.63;5081161;28;20180;-81
2022/10/26 17:25:29;;;;;;;33.53;16.23;;;;;;;15.65;58.83;95533.53;5077785;28;20219;-81
2022/10/26 17:27:55;;;;;;;43.95;18.98;;;;;;;15.65;58.66;95525.59;5102717;28;20592;-80
2022/10/26 17:30:21;;;;;;;39.37;16.10;;;;;;;15.70;59.85;95538.97;5077485;28;20489;-81
2022/10/26 17:32:46;;;;;;;24.65;9.48;;;;;;;15.60;58.88;95522.78;5084328;28;20268;-81
2022/10/26 17:35:17;;;;;;;27.50;10.77;;;;;;;15.51;58.64;95510.81;5082281;28;20190;-81
2022/10/26 17:37:52;;;;;;;30.95;14.40;;;;;;;15.61;58.98;95520.94;5079278;28;20185;-81
2022/10/26 17:40:21;;;;;;;35.72;14.02;;;;;;;15.68;59.47;95554.31;5085852;28;20320;-81
2022/10/26 17:42:49;;;;;;;37.13;13.10;;;;;;;15.22;59.71;95483.22;5078140;28;20224;-82
2022/10/26 17:45:17;;;;;;;39.45;14.82;;;;;;;15.52;60.45;95540.81;5083306;28;20627;-81
2022/10/26 17:47:43;;;;;;;26.40;13.80;;;;;;;15.39;60.79;95539.94;5082458;28;20598;-81
2022/10/26 17:50:13;;;;;;;50.13;18.38;;;;;;;15.31;61.66;95539.44;5089208;28;20733;-81
2022/10/26 17:52:41;;;;;;;39.10;15.63;;;;;;;15.27;61.62;95556.84;5099477;28;20182;-81
2022/10/26 17:55:07;;;;;;;44.10;17.90;;;;;;;14.98;61.91;95518.63;5088422;28;20184;-81
2022/10/26 17:57:35;;;;;;;45.83;19.42;;;;;;;15.15;62.12;95556.78;5087698;28;20190;-81
2022/10/26 18:00:01;;;;;;;49.35;19.70;;;;;;;15.09;62.09;95550.53;5083837;28;20201;-81
2022/10/26 18:02:26;;;;;;;40.05;18.65;;;;;;;14.89;62.67;95525.25;5083239;28;20559;-81
2022/10/26 18:04:52;;;;;;;45.75;19.85;;;;;;;14.66;62.74;95499.41;5090848;28;20178;-82
2022/10/26 18:07:17;;;;;;;55.80;19.77;;;;;;;14.57;62.90;95485.63;5083792;28;20178;-82
2022/10/26 18:09:42;;;;;;;41.95;18.70;;;;;;;14.66;62.72;95515.31;5087540;28;20215;-82
2022/10/26 18:12:11;;;;;;;52.38;22.63;;;;;;;14.92;63.55;95556.63;5083552;28;20429;-83
2022/10/26 18:14:36;;;;;;;26.85;13.13;;;;;;;14.70;62.08;95522.59;5088679;28;20190;-82
2022/10/26 18:17:12;;;;;;;48.78;14.88;;;;;;;14.65;62.26;95509.19;5081683;28;20184;-81
2022/10/26 18:19:50;;;;;;;27.27;12.90;;;;;;;14.80;61.32;95535.34;5079595;28;20940;-82
2022/10/26 18:22:28;;;;;;;28.98;13.10;;;;;;;14.95;61.88;95572.13;5085011;28;20434;-82
2022/10/26 18:24:54;;;;;;;22.00;9.98;;;;;;;14.84;61.41;95543.66;5076232;28;20197;-83
2022/10/26 18:27:24;;;;;;;20.95;9.20;;;;;;;14.58;61.26;95521.72;5083754;28;20178;-82
2022/10/26 18:29:50;;;;;;;29.63;12.00;;;;;;;14.93;62.48;95569.69;5080318;28;20223;-81
2022/10/26 18:32:18;;;;;;;27.08;10.57;;;;;;;14.85;61.88;95569.16;5089993;28;20276;-82
2022/10/26 18:34:46;;;;;;;24.83;10.70;;;;;;;14.47;62.50;95519.78;5091052;28;20182;-82
2022/10/26 18:37:26;;;;;;;24.23;10.93;;;;;;;14.60;62.89;95546.16;5085748;28;20185;-82
2022/10/26 18:39:52;;;;;;;23.50;9.88;;;;;;;14.69;62.80;95567.88;5078984;28;20346;-82
2022/10/26 18:42:21;;;;;;;26.13;10.13;;;;;;;14.12;61.63;95500.09;5102645;28;20664;-82
2022/10/26 18:45:00;;;;;;;25.52;9.88;;;;;;;13.96;62.92;95483.72;5083266;28;20186;-82
2022/10/26 18:47:28;;;;;;;25.80;11.35;;;;;;;14.12;63.25;95518.63;5083370;28;20197;-82
2022/10/26 18:50:00;;;;;;;23.08;13.10;;;;;;;13.94;63.22;95503.47;5084463;28;20181;-87
2022/10/26 18:52:28;;;;;;;38.95;13.45;;;;;;;14.26;63.12;95559.88;5081692;28;20668;-83
2022/10/26 18:54:57;;;;;;;22.98;11.13;;;;;;;14.37;63.40;95596.25;5089946;28;20169;-82
2022/10/26 18:57:27;;;;;;;27.17;11.88;;;;;;;14.32;64.05;95588.13;5087266;28;20194;-84
2022/10/26 18:59:54;;;;;;;30.50;12.50;;;;;;;14.00;64.18;95539.72;5085250;28;20203;-82
2022/10/26 19:02:25;;;;;;;38.53;12.77;;;;;;;14.09;64.30;95564.09;5081749;28;20174;-82
2022/10/26 19:04:53;;;;;;;31.30;12.95;;;;;;;14.16;64.53;95600.06;5087276;28;20187;-83
2022/10/26 19:07:20;;;;;;;48.13;18.87;;;;;;;13.60;64.82;95533.84;5084776;28;20224;-83
2022/10/26 19:09:48;;;;;;;53.00;22.40;;;;;;;13.46;65.35;95522.53;5080683;28;20197;-81
2022/10/26 19:12:15;;;;;;;35.03;17.30;;;;;;;13.93;65.94;95618.31;5081301;28;20201;-83
2022/10/26 19:14:40;;;;;;;38.23;16.00;;;;;;;13.86;65.84;95610.44;5088914;28;20185;-82
2022/10/26 19:17:06;;;;;;;28.80;15.23;;;;;;;13.52;65.76;95571.13;5093691;28;20173;-82
2022/10/26 19:19:31;;;;;;;35.40;17.70;;;;;;;13.36;66.73;95556.56;5078474;28;20590;-82
2022/10/26 19:21:58;;;;;;;37.07;18.10;;;;;;;13.39;66.64;95571.22;5084400;28;20217;-82
2022/10/26 19:24:24;;;;;;;38.30;15.70;;;;;;;13.36;66.90;95582.19;5081083;28;20196;-82
2022/10/26 19:26:50;;;;;;;26.87;13.87;;;;;;;13.23;67.24;95575.91;5085605;28;20186;-83
2022/10/26 19:29:17;;;;;;;30.03;13.60;;;;;;;13.43;67.47;95615.53;5085084;28;20174;-82
2022/10/26 19:31:44;;;;;;;16.63;10.10;;;;;;;13.32;66.77;95596.88;5081251;28;20267;-82
2022/10/26 19:34:11;;;;;;;30.40;10.67;;;;;;;13.47;67.42;95623.88;5080846;28;20273;-81
2022/10/26 19:36:36;;;;;;;20.23;10.67;;;;;;;13.44;67.40;95626.91;5087406;28;20179;-82
2022/10/26 19:39:02;;;;;;;23.50;10.17;;;;;;;13.25;67.85;95606.63;5077962;28;20311;-82
2022/10/26 19:41:30;;;;;;;24.93;10.33;;;;;;;12.98;68.11;95568.84;5080792;28;20178;-81
2022/10/26 19:43:56;;;;;;;21.13;9.57;;;;;;;13.29;68.44;95626.38;5076810;28;20194;-81
2022/10/26 19:46:25;;;;;;;17.97;9.30;;;;;;;13.23;68.01;95633.31;5083298;28;20672;-80
2022/10/26 19:49:00;;;;;;;19.43;9.10;;;;;;;13.05;68.36;95620.72;5080535;28;20182;-81
2022/10/26 19:51:29;;;;;;;21.77;9.10;;;;;;;13.08;68.32;95633.50;5082586;28;20645;-81
2022/10/26 19:53:54;;;;;;;20.37;9.87;;;;;;;13.06;68.98;95637.38;5080690;28;20182;-81
2022/10/26 19:56:21;;;;;;;16.27;9.70;;;;;;;13.03;69.31;95649.19;5080790;28;20613;-81
2022/10/26 19:58:49;;;;;;;19.43;9.57;;;;;;;12.76;69.42;95606.13;5079897;28;20203;-81
2022/10/26 20:01:15;;;;;;;23.57;10.27;;;;;;;12.66;69.86;95589.06;5089924;28;20197;-80
2022/10/26 20:03:42;;;;;;;24.07;10.27;;;;;;;12.72;69.36;95610.19;5079123;28;20214;-80
2022/10/26 20:06:12;;;;;;;23.13;10.03;;;;;;;12.89;69.70;95636.16;5082962;28;20173;-81
2022/10/26 20:08:44;;;;;;;24.37;12.53;;;;;;;12.71;69.91;95624.41;5071348;28;20265;-82
2022/10/26 20:11:11;;;;;;;19.93;12.43;;;;;;;12.65;69.88;95624.41;5081798;28;20189;-82
2022/10/26 20:13:38;;;;;;;29.57;11.77;;;;;;;12.37;69.97;95591.09;5063519;28;20228;-81
2022/10/26 20:16:05;;;;;;;20.00;8.73;;;;;;;12.63;70.68;95647.56;5090300;28;20174;-81
2022/10/26 20:18:31;;;;;;;20.17;10.43;;;;;;;12.37;70.52;95614.88;5090174;28;20254;-83
2022/10/26 20:20:56;;;;;;;20.87;11.00;;;;;;;12.64;70.71;95671.16;5092179;28;20346;-81
2022/10/26 20:23:22;;;;;;;17.37;7.97;;;;;;;12.18;71.23;95636.00;5089775;28;20264;-82
2022/10/26 20:25:49;;;;;;;22.87;9.63;;;;;;;12.00;71.80;95632.09;5089731;28;20185;-82
2022/10/26 20:28:16;;;;;;;18.57;9.13;;;;;;;12.34;72.15;95689.22;5083420;28;20564;-83
2022/10/26 20:30:43;;;;;;;22.03;8.40;;;;;;;12.23;71.92;95659.94;5083413;28;20174;-83
2022/10/26 20:33:09;;;;;;;16.13;8.43;;;;;;;12.02;72.11;95626.63;5088103;28;20181;-83
2022/10/26 20:35:35;;;;;;;18.87;7.93;;;;;;;12.20;72.23;95679.63;5076636;28;20174;-83
2022/10/26 20:38:01;;;;;;;18.93;8.70;;;;;;;12.01;72.17;95656.66;5089318;28;20174;-83
2022/10/26 20:40:27;;;;;;;19.27;11.00;;;;;;;12.18;72.92;95694.06;5072211;28;20199;-83
2022/10/26 20:42:53;;;;;;;19.63;10.73;;;;;;;11.85;72.80;95635.94;5072954;28;20245;-83
2022/10/26 20:45:33;;;;;;;27.93;11.00;;;;;;;12.26;72.58;95705.25;5070984;28;20178;-83
2022/10/26 20:48:01;;;;;;;21.90;9.70;;;;;;;11.97;73.14;95660.72;5072399;28;20158;-83
2022/10/26 20:50:29;;;;;;;21.40;9.47;;;;;;;12.04;72.98;95680.81;5085592;28;20194;-83
2022/10/26 20:53:28;;;;;;;22.20;10.33;;;;;;;12.18;73.04;95713.34;5088042;28;20194;-83
2022/10/26 20:56:02;;;;;;;21.50;8.70;;;;;;;12.01;72.98;95689.16;5069332;28;20685;-83
2022/10/26 20:58:48;;;;;;;17.30;8.43;;;;;;;12.16;73.22;95717.19;5084742;28;20209;-83
2022/10/26 21:01:24;;;;;;;21.10;9.43;;;;;;;11.96;73.14;95696.03;5086885;28;20588;-83
2022/10/26 21:03:50;;;;;;;25.83;10.30;;;;;;;12.06;73.10;95718.38;5072675;28;20180;-83
2022/10/26 21:06:16;;;;;;;17.37;9.53;;;;;;;11.79;73.54;95690.28;5071951;28;20166;-83
2022/10/26 21:08:41;;;;;;;17.03;9.10;;;;;;;11.58;73.67;95643.72;5072155;28;20158;-83
2022/10/26 21:11:08;;;;;;;16.13;8.00;;;;;;;12.01;73.73;95725.28;5070796;28;20212;-81
2022/10/26 21:13:42;;;;;;;16.50;8.00;;;;;;;12.01;73.55;95735.84;5071830;28;20204;-82
2022/10/26 21:16:16;;;;;;;20.40;9.03;;;;;;;11.96;74.15;95732.97;5072298;28;20182;-83